createdAt,value
2018-01-31T01:52:21.162Z,98002.75
2018-01-31T01:53:07.819Z,98005.14
2018-01-31T01:54:12.932Z,97992.77
2018-01-31T01:55:17.622Z,97984.47
2018-01-31T01:56:22.373Z,97990.80
2018-01-31T01:57:27.141Z,97980.10
2018-01-31T01:58:31.881Z,97983.91
2018-01-31T01:59:36.685Z,97976.77
2018-01-31T02:00:41.837Z,97976.69
2018-01-31T02:01:46.576Z,97965.97
2018-01-31T02:02:51.506Z,97960.66
2018-01-31T02:03:56.234Z,97963.27
2018-01-31T02:05:01.216Z,97964.03
2018-01-31T02:06:05.957Z,97955.34
2018-01-31T02:07:11.158Z,97958.34
2018-01-31T02:08:15.876Z,97958.45
2018-01-31T02:09:20.576Z,97948.30
2018-01-31T02:10:25.328Z,97943.84
2018-01-31T02:11:30.037Z,97944.02
2018-01-31T02:12:34.806Z,97945.36
2018-01-31T02:13:39.898Z,97941.13
2018-01-31T02:14:44.628Z,97939.86
2018-01-31T02:15:49.405Z,97936.74
2018-01-31T02:16:54.130Z,97934.33
2018-01-31T02:17:58.831Z,97931.14
2018-01-31T02:19:03.804Z,97927.67
2018-01-31T02:20:08.958Z,97921.91
2018-01-31T02:21:13.716Z,97922.17
2018-01-31T02:22:18.438Z,97916.32
2018-01-31T02:23:23.165Z,97921.36
2018-01-31T02:24:27.905Z,97917.97
2018-01-31T02:25:32.618Z,97912.48
2018-01-31T02:26:37.699Z,97907.64
2018-01-31T02:27:42.423Z,97911.98
2018-01-31T02:28:47.033Z,97904.88
2018-01-31T02:29:51.777Z,97906.56
2018-01-31T02:30:56.507Z,97909.70
2018-01-31T02:32:01.231Z,97911.38
2018-01-31T02:33:06.399Z,97902.77
2018-01-31T02:34:11.175Z,97896.40
2018-01-31T02:35:16.001Z,97900.89
2018-01-31T02:36:20.807Z,97891.11
2018-01-31T02:37:25.438Z,97895.53
2018-01-31T02:38:34.393Z,97883.50
2018-01-31T02:39:43.388Z,97883.70
2018-01-31T02:40:48.226Z,97880.89
2018-01-31T02:41:53.040Z,97879.69
2018-01-31T02:42:57.895Z,97879.28
2018-01-31T02:44:02.690Z,97878.61
2018-01-31T02:45:07.505Z,97873.39
2018-01-31T02:46:12.772Z,97864.66
2018-01-31T02:47:17.527Z,97867.86
2018-01-31T02:48:22.337Z,97865.50
2018-01-31T02:49:27.161Z,97867.36
2018-01-31T02:50:31.937Z,97862.75
2018-01-31T02:51:36.769Z,97861.05
2018-01-31T02:52:42.010Z,97865.89
2018-01-31T02:53:46.784Z,97850.11
2018-01-31T02:54:51.638Z,97845.13
2018-01-31T02:55:56.429Z,97851.04
2018-01-31T02:57:01.283Z,97840.66
2018-01-31T02:58:06.104Z,97844.08
2018-01-31T02:59:11.316Z,97834.22
2018-01-31T03:00:16.897Z,97841.12
2018-01-31T03:01:21.679Z,97844.89
2018-01-31T03:02:26.508Z,97834.09
2018-01-31T03:03:31.425Z,97827.95
2018-01-31T03:04:36.216Z,97828.20
2018-01-31T03:05:41.480Z,97829.95
2018-01-31T03:06:46.284Z,97815.89
2018-01-31T03:07:51.067Z,97808.96
2018-01-31T03:08:55.879Z,97816.79
2018-01-31T03:10:00.628Z,97809.19
2018-01-31T03:11:05.404Z,97819.45
2018-01-31T03:12:10.571Z,97806.12
2018-01-31T03:13:15.348Z,97797.79
2018-01-31T03:14:20.133Z,97804.72
2018-01-31T03:15:24.932Z,97793.89
2018-01-31T03:16:29.701Z,97798.33
2018-01-31T03:17:34.492Z,97792.40
2018-01-31T03:18:39.723Z,97794.30
2018-01-31T03:19:44.468Z,97792.24
2018-01-31T03:20:49.256Z,97797.23
2018-01-31T03:21:54.002Z,97786.75
2018-01-31T03:22:58.821Z,97776.77
2018-01-31T03:24:03.591Z,97769.32
2018-01-31T03:25:08.638Z,97779.64
2018-01-31T03:26:13.402Z,97781.89
2018-01-31T03:27:18.168Z,97771.91
2018-01-31T03:28:22.817Z,97774.84
2018-01-31T03:29:27.440Z,97768.69
2018-01-31T03:30:32.094Z,97772.84
2018-01-31T03:31:37.274Z,97765.32
2018-01-31T03:32:41.915Z,97773.99
2018-01-31T03:33:46.543Z,97778.05
2018-01-31T03:34:51.146Z,97757.45
2018-01-31T03:35:55.949Z,97767.81
2018-01-31T03:37:00.658Z,97756.55
2018-01-31T03:38:05.712Z,97756.48
2018-01-31T03:39:10.330Z,97765.59
2018-01-31T03:40:15.122Z,97752.07
2018-01-31T03:41:19.919Z,97765.52
2018-01-31T03:42:24.695Z,97753.11
2018-01-31T03:43:29.508Z,97756.69
2018-01-31T03:44:34.737Z,97747.86
2018-01-31T03:45:39.412Z,97744.23
2018-01-31T03:46:44.218Z,97748.73
2018-01-31T03:47:49.027Z,97746.64
2018-01-31T03:48:53.820Z,97739.16
2018-01-31T03:49:58.803Z,97742.92
2018-01-31T03:51:03.573Z,97724.30
2018-01-31T03:52:08.388Z,97734.26
2018-01-31T03:53:13.228Z,97732.20
2018-01-31T03:54:18.120Z,97734.66
2018-01-31T03:55:22.771Z,97728.52
2018-01-31T03:56:27.404Z,97730.81
2018-01-31T03:57:32.442Z,97722.86
2018-01-31T03:58:37.276Z,97723.67
2018-01-31T03:59:42.095Z,97713.69
2018-01-31T04:00:46.887Z,97719.62
2018-01-31T04:01:51.648Z,97715.91
2018-01-31T04:02:56.464Z,97711.28
2018-01-31T04:04:01.693Z,97708.31
2018-01-31T04:05:06.725Z,97699.61
2018-01-31T04:06:11.560Z,97705.89
2018-01-31T04:07:16.382Z,97719.15
2018-01-31T04:08:21.188Z,97709.47
2018-01-31T04:09:26.030Z,97706.43
2018-01-31T04:10:31.244Z,97696.75
2018-01-31T04:11:36.041Z,97710.41
2018-01-31T04:12:40.811Z,97698.37
2018-01-31T04:13:45.593Z,97695.09
2018-01-31T04:14:50.369Z,97696.24
2018-01-31T04:15:55.182Z,97685.41
2018-01-31T04:17:00.312Z,97683.48
2018-01-31T04:18:05.114Z,97688.05
2018-01-31T04:19:09.888Z,97701.77
2018-01-31T04:20:14.801Z,97689.77
2018-01-31T04:21:19.549Z,97687.57
2018-01-31T04:22:24.352Z,97688.31
2018-01-31T04:23:29.459Z,97682.81
2018-01-31T04:24:34.227Z,97679.40
2018-01-31T04:25:39.015Z,97674.74
2018-01-31T04:26:43.840Z,97682.91
2018-01-31T04:27:48.726Z,97679.94
2018-01-31T04:28:53.481Z,97667.27
2018-01-31T04:29:58.586Z,97673.81
2018-01-31T04:31:03.363Z,97670.74
2018-01-31T04:32:08.174Z,97675.13
2018-01-31T04:33:12.944Z,97670.83
2018-01-31T04:34:17.797Z,97664.07
2018-01-31T04:35:22.491Z,97653.34
2018-01-31T04:36:27.633Z,97659.63
2018-01-31T04:37:32.307Z,97659.19
2018-01-31T04:38:37.086Z,97639.60
2018-01-31T04:41:01.139Z,97667.55
2018-01-31T04:42:05.968Z,97636.07
2018-01-31T04:43:11.157Z,97653.19
2018-01-31T04:44:15.916Z,97645.87
2018-01-31T04:45:20.900Z,97640.91
2018-01-31T04:46:25.664Z,97650.83
2018-01-31T04:47:30.464Z,97639.23
2018-01-31T04:48:35.228Z,97656.72
2018-01-31T04:49:40.449Z,97644.23
2018-01-31T04:50:45.235Z,97638.05
2018-01-31T04:51:49.992Z,97637.79
2018-01-31T04:52:54.816Z,97633.53
2018-01-31T04:53:59.598Z,97633.02
2018-01-31T04:55:04.425Z,97645.41
2018-01-31T04:56:09.504Z,97629.36
2018-01-31T04:57:14.180Z,97647.44
2018-01-31T04:58:18.842Z,97622.16
2018-01-31T04:59:23.564Z,97621.09
2018-01-31T05:00:28.793Z,97629.83
2018-01-31T05:01:33.850Z,97616.94
2018-01-31T05:02:39.126Z,97628.03
2018-01-31T05:03:43.908Z,97637.70
2018-01-31T05:04:48.693Z,97601.91
2018-01-31T05:05:53.476Z,97611.55
2018-01-31T05:06:58.282Z,97626.46
2018-01-31T05:08:03.038Z,97609.23
2018-01-31T05:09:08.235Z,97608.86
2018-01-31T05:10:13.040Z,97607.80
2018-01-31T05:11:17.860Z,97596.88
2018-01-31T05:12:22.640Z,97600.77
2018-01-31T05:13:27.459Z,97604.92
2018-01-31T05:14:32.224Z,97599.81
2018-01-31T05:15:37.683Z,97599.75
2018-01-31T05:16:42.476Z,97596.37
2018-01-31T05:17:47.268Z,97593.72
2018-01-31T05:18:52.088Z,97585.78
2018-01-31T05:19:56.993Z,97595.41
2018-01-31T05:21:01.784Z,97576.38
2018-01-31T05:22:07.152Z,97597.98
2018-01-31T05:23:11.948Z,97588.83
2018-01-31T05:24:16.745Z,97590.41
2018-01-31T05:25:21.557Z,97578.91
2018-01-31T05:26:26.464Z,97576.08
2018-01-31T05:27:31.263Z,97582.47
2018-01-31T05:28:36.418Z,97585.05
2018-01-31T05:29:41.308Z,97593.58
2018-01-31T05:30:47.083Z,97581.84
2018-01-31T05:31:52.312Z,97576.05
2018-01-31T05:32:57.100Z,97578.55
2018-01-31T05:34:01.938Z,97578.58
2018-01-31T05:35:06.997Z,97564.47
2018-01-31T05:36:11.655Z,97588.06
2018-01-31T05:37:16.412Z,97576.67
2018-01-31T05:38:21.201Z,97582.52
2018-01-31T05:39:25.977Z,97556.75
2018-01-31T05:40:30.784Z,97555.91
2018-01-31T05:41:35.989Z,97574.53
2018-01-31T05:42:40.816Z,97560.39
2018-01-31T05:43:45.574Z,97560.39
2018-01-31T05:44:50.376Z,97545.69
2018-01-31T05:45:55.184Z,97555.35
2018-01-31T05:46:59.979Z,97554.17
2018-01-31T05:48:05.105Z,97567.88
2018-01-31T05:49:09.867Z,97556.13
2018-01-31T05:50:14.649Z,97549.95
2018-01-31T05:51:19.463Z,97536.94
2018-01-31T05:52:24.255Z,97542.82
2018-01-31T05:53:29.119Z,97560.64
2018-01-31T05:54:34.162Z,97554.44
2018-01-31T05:55:38.833Z,97550.02
2018-01-31T05:56:43.645Z,97532.12
2018-01-31T05:57:48.332Z,97527.16
2018-01-31T05:58:53.136Z,97536.75
2018-01-31T05:59:58.280Z,97521.80
2018-01-31T06:01:03.325Z,97536.06
2018-01-31T06:02:08.185Z,97521.02
2018-01-31T06:03:13.103Z,97533.92
2018-01-31T06:04:17.896Z,97525.29
2018-01-31T06:05:22.679Z,97528.08
2018-01-31T06:06:27.499Z,97526.30
2018-01-31T06:07:33.104Z,97539.17
2018-01-31T06:08:37.940Z,97522.59
2018-01-31T06:09:42.852Z,97514.30
2018-01-31T06:10:47.538Z,97516.36
2018-01-31T06:11:52.170Z,97513.05
2018-01-31T06:12:56.802Z,97527.08
2018-01-31T06:14:01.534Z,97529.80
2018-01-31T06:15:06.180Z,97534.97
2018-01-31T06:16:10.800Z,97504.89
2018-01-31T06:17:15.604Z,97517.05
2018-01-31T06:18:20.461Z,97521.09
2018-01-31T06:19:25.541Z,97532.95
2018-01-31T06:20:30.444Z,97519.56
2018-01-31T06:21:35.238Z,97525.70
2018-01-31T06:22:40.155Z,97491.02
2018-01-31T06:23:44.948Z,97521.95
2018-01-31T06:24:49.756Z,97500.94
2018-01-31T06:25:55.071Z,97509.36
2018-01-31T06:26:59.873Z,97489.23
2018-01-31T06:28:04.687Z,97492.21
2018-01-31T06:29:09.405Z,97498.09
2018-01-31T06:30:14.011Z,97498.54
2018-01-31T06:31:18.650Z,97494.39
2018-01-31T06:32:23.564Z,97491.53
2018-01-31T06:33:28.316Z,97497.86
2018-01-31T06:34:32.995Z,97483.34
2018-01-31T06:35:37.825Z,97487.53
2018-01-31T06:36:42.622Z,97500.08
2018-01-31T06:37:47.298Z,97475.73
2018-01-31T06:38:52.433Z,97486.13
2018-01-31T06:39:57.324Z,97475.40
2018-01-31T06:41:02.107Z,97482.78
2018-01-31T06:42:06.951Z,97481.77
2018-01-31T06:43:11.806Z,97484.70
2018-01-31T06:44:16.586Z,97481.07
2018-01-31T06:45:21.641Z,97479.13
2018-01-31T06:46:26.442Z,97473.03
2018-01-31T06:47:31.378Z,97471.45
2018-01-31T06:48:36.172Z,97472.75
2018-01-31T06:49:40.945Z,97472.70
2018-01-31T06:50:45.771Z,97487.95
2018-01-31T06:51:50.876Z,97492.36
2018-01-31T06:52:55.627Z,97470.11
2018-01-31T06:54:00.457Z,97482.38
2018-01-31T06:55:05.282Z,97469.87
2018-01-31T06:56:10.100Z,97465.64
2018-01-31T06:57:14.866Z,97457.81
2018-01-31T06:58:20.006Z,97451.08
2018-01-31T06:59:24.786Z,97448.05
2018-01-31T07:00:29.590Z,97450.23
2018-01-31T07:01:34.401Z,97471.88
2018-01-31T07:02:39.277Z,97462.45
2018-01-31T07:03:44.131Z,97450.28
2018-01-31T07:04:49.347Z,97448.86
2018-01-31T07:05:54.213Z,97448.54
2018-01-31T07:06:59.028Z,97461.08
2018-01-31T07:08:03.812Z,97450.64
2018-01-31T07:09:08.616Z,97429.59
2018-01-31T07:10:13.426Z,97448.30
2018-01-31T07:11:18.442Z,97436.36
2018-01-31T07:12:23.181Z,97456.77
2018-01-31T07:13:27.883Z,97424.70
2018-01-31T07:14:32.553Z,97437.69
2018-01-31T07:15:37.207Z,97442.69
2018-01-31T07:16:41.882Z,97428.58
2018-01-31T07:17:46.896Z,97431.84
2018-01-31T07:18:51.584Z,97440.23
2018-01-31T07:19:56.230Z,97412.73
2018-01-31T07:21:00.976Z,97432.73
2018-01-31T07:22:05.792Z,97435.19
2018-01-31T07:23:10.577Z,97428.90
2018-01-31T07:24:15.881Z,97426.36
2018-01-31T07:25:20.932Z,97414.71
2018-01-31T07:26:25.708Z,97415.48
2018-01-31T07:27:30.562Z,97408.83
2018-01-31T07:28:35.434Z,97428.50
2018-01-31T07:29:40.279Z,97429.88
2018-01-31T07:30:45.556Z,97430.69
2018-01-31T07:31:50.436Z,97451.88
2018-01-31T07:32:55.287Z,97410.59
2018-01-31T07:34:00.070Z,97415.28
2018-01-31T07:35:04.864Z,97424.15
2018-01-31T07:36:09.759Z,97407.41
2018-01-31T07:37:14.886Z,97414.91
2018-01-31T07:38:19.697Z,97407.49
2018-01-31T07:39:24.483Z,97409.87
2018-01-31T07:40:29.386Z,97413.45
2018-01-31T07:41:34.244Z,97401.89
2018-01-31T07:42:39.045Z,97395.88
2018-01-31T07:43:44.285Z,97386.69
2018-01-31T07:44:50.189Z,97405.92
2018-01-31T07:45:55.060Z,97391.69
2018-01-31T07:46:59.867Z,97394.79
2018-01-31T07:48:04.692Z,97398.22
2018-01-31T07:49:09.581Z,97382.77
2018-01-31T07:50:14.902Z,97387.49
2018-01-31T07:51:19.860Z,97380.48
2018-01-31T07:52:24.645Z,97382.61
2018-01-31T07:53:29.468Z,97377.98
2018-01-31T07:54:34.276Z,97395.84
2018-01-31T07:55:39.127Z,97391.16
2018-01-31T07:56:44.277Z,97363.14
2018-01-31T07:57:49.090Z,97383.83
2018-01-31T07:58:53.927Z,97369.19
2018-01-31T07:59:58.721Z,97394.03
2018-01-31T08:01:03.558Z,97392.20
2018-01-31T08:02:08.385Z,97378.45
2018-01-31T08:03:13.534Z,97365.11
2018-01-31T08:04:18.321Z,97367.53
2018-01-31T08:05:23.122Z,97335.95
2018-01-31T08:06:27.902Z,97338.88
2018-01-31T08:07:33.062Z,97364.19
2018-01-31T08:08:37.968Z,97376.77
2018-01-31T08:09:43.507Z,97376.68
2018-01-31T08:10:48.365Z,97365.27
2018-01-31T08:11:53.161Z,97374.22
2018-01-31T08:12:58.124Z,97352.64
2018-01-31T08:14:02.891Z,97367.12
2018-01-31T08:15:08.538Z,97357.56
2018-01-31T08:16:13.797Z,97362.69
2018-01-31T08:17:18.625Z,97342.28
2018-01-31T08:18:23.480Z,97357.73
2018-01-31T08:19:28.252Z,97365.95
2018-01-31T08:20:33.101Z,97353.85
2018-01-31T08:21:37.844Z,97361.44
2018-01-31T08:22:43.024Z,97356.87
2018-01-31T08:23:48.172Z,97374.98
2018-01-31T08:24:52.986Z,97355.58
2018-01-31T08:25:57.778Z,97378.48
2018-01-31T08:27:02.593Z,97367.00
2018-01-31T08:28:07.429Z,97347.67
2018-01-31T08:29:12.669Z,97364.58
2018-01-31T08:30:17.521Z,97340.33
2018-01-31T08:31:22.370Z,97321.70
2018-01-31T08:32:27.182Z,97336.26
2018-01-31T08:33:32.046Z,97338.84
2018-01-31T08:34:37.046Z,97336.62
2018-01-31T08:35:41.908Z,97366.19
2018-01-31T08:36:46.729Z,97342.55
2018-01-31T08:37:51.618Z,97336.62
2018-01-31T08:38:56.451Z,97343.77
2018-01-31T08:40:01.253Z,97325.27
2018-01-31T08:41:06.076Z,97337.36
2018-01-31T08:42:11.342Z,97327.36
2018-01-31T08:43:16.165Z,97321.19
2018-01-31T08:44:20.981Z,97323.97
2018-01-31T08:45:25.826Z,97327.20
2018-01-31T08:46:30.610Z,97345.17
2018-01-31T08:47:35.948Z,97309.52
2018-01-31T08:48:42.413Z,97313.13
2018-01-31T08:49:47.254Z,97325.59
2018-01-31T08:50:52.205Z,97344.62
2018-01-31T08:51:57.528Z,97294.16
2018-01-31T08:53:02.384Z,97334.18
2018-01-31T08:54:07.144Z,97309.73
2018-01-31T08:55:12.441Z,97310.14
2018-01-31T08:56:17.204Z,97300.27
2018-01-31T08:57:22.032Z,97311.13
2018-01-31T08:58:26.816Z,97284.69
2018-01-31T08:59:31.653Z,97306.58
2018-01-31T09:00:38.492Z,97295.73
2018-01-31T09:01:44.126Z,97290.52
2018-01-31T09:02:48.943Z,97292.57
2018-01-31T09:03:53.926Z,97272.28
2018-01-31T09:04:58.981Z,97283.50
2018-01-31T09:06:03.812Z,97278.22
2018-01-31T09:07:08.844Z,97301.09
2018-01-31T09:08:14.338Z,97298.11
2018-01-31T09:09:19.209Z,97317.98
2018-01-31T09:10:24.227Z,97297.53
2018-01-31T09:11:29.748Z,97288.86
2018-01-31T09:12:37.014Z,97283.71
2018-01-31T09:13:42.320Z,97266.45
2018-01-31T09:14:47.201Z,97270.93
2018-01-31T09:15:52.073Z,97267.77
2018-01-31T09:16:56.976Z,97285.11
2018-01-31T09:18:01.759Z,97292.34
2018-01-31T09:19:06.594Z,97292.70
2018-01-31T09:20:11.751Z,97315.34
2018-01-31T09:21:16.500Z,97280.52
2018-01-31T09:22:21.333Z,97279.63
2018-01-31T09:23:26.218Z,97286.77
2018-01-31T09:24:31.002Z,97273.77
2018-01-31T09:25:35.780Z,97265.73
2018-01-31T09:26:40.639Z,97255.86
2018-01-31T09:27:45.465Z,97270.29
2018-01-31T09:28:50.264Z,97261.27
2018-01-31T09:29:55.068Z,97268.85
2018-01-31T09:30:59.852Z,97258.36
2018-01-31T09:32:04.948Z,97267.56
2018-01-31T09:33:09.801Z,97273.81
2018-01-31T09:34:15.834Z,97262.16
2018-01-31T09:35:20.653Z,97261.27
2018-01-31T09:36:25.564Z,97231.02
2018-01-31T09:37:30.606Z,97250.86
2018-01-31T09:38:35.873Z,97258.80
2018-01-31T09:39:40.795Z,97268.45
2018-01-31T09:40:45.620Z,97273.13
2018-01-31T09:41:50.490Z,97232.97
2018-01-31T09:42:55.315Z,97230.68
2018-01-31T09:44:00.224Z,97244.35
2018-01-31T09:45:05.457Z,97256.55
2018-01-31T09:46:10.277Z,97242.20
2018-01-31T09:47:15.126Z,97230.36
2018-01-31T09:48:19.999Z,97217.22
2018-01-31T09:49:24.828Z,97229.17
2018-01-31T09:50:29.717Z,97227.97
2018-01-31T09:51:34.926Z,97232.61
2018-01-31T09:52:39.789Z,97236.73
2018-01-31T09:53:44.546Z,97225.36
2018-01-31T09:54:49.420Z,97221.80
2018-01-31T09:55:54.212Z,97229.74
2018-01-31T09:56:59.069Z,97219.21
2018-01-31T09:58:04.272Z,97256.95
2018-01-31T09:59:09.153Z,97232.97
2018-01-31T10:00:14.019Z,97217.16
2018-01-31T10:01:19.004Z,97216.67
2018-01-31T10:02:23.876Z,97219.53
2018-01-31T10:03:28.726Z,97209.40
2018-01-31T10:04:33.999Z,97224.41
2018-01-31T10:05:38.764Z,97196.00
2018-01-31T10:06:43.633Z,97185.00
2018-01-31T10:07:48.532Z,97188.04
2018-01-31T10:08:53.348Z,97200.77
2018-01-31T10:09:58.132Z,97175.63
2018-01-31T10:11:03.131Z,97171.34
2018-01-31T10:12:07.919Z,97167.06
2018-01-31T10:13:12.826Z,97202.16
2018-01-31T10:14:17.632Z,97206.64
2018-01-31T10:15:22.522Z,97194.89
2018-01-31T10:16:27.480Z,97183.67
2018-01-31T10:17:32.834Z,97194.00
2018-01-31T10:18:37.778Z,97183.91
2018-01-31T10:19:42.719Z,97186.00
2018-01-31T10:20:47.747Z,97193.28
2018-01-31T10:21:53.097Z,97174.88
2018-01-31T10:22:58.940Z,97173.14
2018-01-31T10:24:05.713Z,97159.96
2018-01-31T10:25:13.402Z,97159.02
2018-01-31T10:26:18.328Z,97139.86
2018-01-31T10:27:23.250Z,97168.14
2018-01-31T10:28:28.038Z,97172.02
2018-01-31T10:29:32.820Z,97174.56
2018-01-31T10:30:38.777Z,97174.65
2018-01-31T10:31:43.597Z,97148.08
2018-01-31T10:32:48.417Z,97152.50
2018-01-31T10:33:53.325Z,97164.33
2018-01-31T10:34:58.528Z,97126.81
2018-01-31T10:36:03.528Z,97137.05
2018-01-31T10:37:08.845Z,97148.12
2018-01-31T10:38:13.704Z,97142.13
2018-01-31T10:39:18.683Z,97185.67
2018-01-31T10:40:23.604Z,97160.66
2018-01-31T10:41:28.454Z,97141.33
2018-01-31T10:42:33.491Z,97122.13
2018-01-31T10:43:38.696Z,97127.22
2018-01-31T10:44:43.852Z,97130.22
2018-01-31T10:45:48.656Z,97132.62
2018-01-31T10:46:53.766Z,97143.17
2018-01-31T10:47:58.738Z,97114.80
2018-01-31T10:49:03.687Z,97130.66
2018-01-31T10:50:09.023Z,97133.95
2018-01-31T10:51:14.067Z,97105.39
2018-01-31T10:52:18.853Z,97132.72
2018-01-31T10:53:23.768Z,97129.40
2018-01-31T10:57:44.882Z,97085.65
2018-01-31T10:58:49.682Z,97050.64
2018-01-31T10:59:54.851Z,97098.05
2018-01-31T11:01:00.183Z,97088.09
2018-01-31T11:02:05.537Z,97103.55
2018-01-31T11:03:10.540Z,97109.45
2018-01-31T11:04:15.505Z,97073.31
2018-01-31T11:05:20.539Z,97088.81
2018-01-31T11:06:25.532Z,97060.05
2018-01-31T11:07:30.731Z,97059.34
2018-01-31T11:08:35.996Z,97068.36
2018-01-31T11:09:40.981Z,97029.99
2018-01-31T11:10:45.911Z,97040.62
2018-01-31T11:11:50.776Z,97008.42
2018-01-31T11:12:56.260Z,97047.95
2018-01-31T11:14:01.225Z,97038.08
2018-01-31T11:15:06.649Z,97084.89
2018-01-31T11:16:11.784Z,97073.64
2018-01-31T11:17:16.594Z,97041.98
2018-01-31T11:18:21.288Z,97048.55
2018-01-31T11:19:26.540Z,97066.94
2018-01-31T11:20:31.434Z,97029.48
2018-01-31T11:21:36.859Z,97026.63
2018-01-31T11:22:41.749Z,97050.42
2018-01-31T11:23:46.981Z,97047.70
2018-01-31T11:24:51.838Z,97026.91
2018-01-31T11:25:56.530Z,97053.14
2018-01-31T11:27:01.338Z,96977.25
2018-01-31T11:28:06.605Z,96990.14
2018-01-31T11:29:11.493Z,97006.19
2018-01-31T11:30:16.337Z,97021.67
2018-01-31T11:31:21.279Z,96999.19
2018-01-31T11:32:26.169Z,97009.00
2018-01-31T11:33:30.911Z,96991.87
2018-01-31T11:34:36.657Z,97027.38
2018-01-31T11:35:41.465Z,96960.92
2018-01-31T11:36:46.675Z,97030.28
2018-01-31T11:37:51.536Z,97005.20
2018-01-31T11:38:56.345Z,96994.41
2018-01-31T11:40:01.247Z,97014.44
2018-01-31T11:41:06.570Z,97023.70
2018-01-31T11:42:11.442Z,96991.20
2018-01-31T11:43:16.289Z,96990.80
2018-01-31T11:44:21.861Z,96989.38
2018-01-31T11:45:27.599Z,96992.23
2018-01-31T11:46:33.220Z,96972.47
2018-01-31T11:47:39.312Z,96988.48
2018-01-31T11:48:45.006Z,96974.11
2018-01-31T11:49:50.692Z,96951.57
2018-01-31T11:50:55.886Z,96965.76
2018-01-31T11:52:01.574Z,96977.91
2018-01-31T11:53:07.370Z,96967.37
2018-01-31T11:54:13.083Z,96979.28
2018-01-31T11:55:18.532Z,96970.65
2018-01-31T11:56:23.859Z,96979.76
2018-01-31T11:57:29.549Z,96961.96
2018-01-31T11:58:34.546Z,96958.75
2018-01-31T11:59:40.467Z,96950.61
2018-01-31T12:00:49.637Z,96977.85
2018-01-31T12:01:54.737Z,96956.56
2018-01-31T12:03:00.373Z,96957.05
2018-01-31T12:04:05.493Z,96937.47
2018-01-31T12:05:10.594Z,96935.52
2018-01-31T12:06:15.473Z,96928.70
2018-01-31T12:07:20.897Z,96920.94
2018-01-31T12:08:26.109Z,96944.50
2018-01-31T12:09:35.467Z,96944.27
2018-01-31T12:10:42.261Z,96928.48
2018-01-31T12:11:47.390Z,96940.26
2018-01-31T12:12:52.257Z,96927.38
2018-01-31T12:14:02.279Z,96934.16
2018-01-31T12:15:12.331Z,96918.41
2018-01-31T12:16:25.230Z,96925.77
2018-01-31T12:17:30.922Z,96905.61
2018-01-31T12:18:41.628Z,96913.86
2018-01-31T12:19:51.455Z,96913.38
2018-01-31T12:21:01.717Z,96894.51
2018-01-31T12:22:10.784Z,96907.66
2018-01-31T12:25:22.365Z,96930.91
2018-01-31T12:26:32.290Z,96914.22
2018-01-31T12:28:47.121Z,96901.06
2018-01-31T12:30:59.168Z,96888.94
2018-01-31T12:32:08.205Z,96918.22
2018-01-31T12:33:24.138Z,96896.64
2018-01-31T12:34:34.088Z,96888.00
2018-01-31T12:37:47.867Z,96880.25
2018-01-31T12:38:57.886Z,96873.56
2018-01-31T12:40:02.289Z,96874.67
2018-01-31T12:41:06.235Z,96890.14
2018-01-31T12:42:10.125Z,96885.05
2018-01-31T12:43:14.028Z,96866.79
2018-01-31T12:44:18.429Z,96854.08
2018-01-31T12:45:22.634Z,96878.55
2018-01-31T12:46:32.603Z,96858.17
2018-01-31T12:47:42.460Z,96855.81
2018-01-31T12:48:52.289Z,96876.23
2018-01-31T12:50:02.505Z,96866.69
2018-01-31T12:51:26.260Z,96826.17
2018-01-31T12:52:35.318Z,96882.78
2018-01-31T12:53:40.518Z,96856.58
2018-01-31T12:54:50.472Z,96854.30
2018-01-31T12:56:00.634Z,96839.38
2018-01-31T12:57:43.540Z,96838.52
2018-01-31T12:58:52.799Z,96843.11
2018-01-31T13:00:02.654Z,96843.59
2018-01-31T13:03:18.616Z,96866.28
2018-01-31T13:04:29.760Z,96827.95
2018-01-31T13:05:38.840Z,96757.87
2018-01-31T13:08:52.396Z,96802.11
2018-01-31T13:12:05.252Z,96816.23
2018-01-31T13:13:15.071Z,96805.36
2018-01-31T13:14:25.391Z,96803.22
2018-01-31T13:15:35.301Z,96818.60
2018-01-31T13:16:45.103Z,96819.00
2018-01-31T13:18:09.754Z,96804.38
2018-01-31T13:19:19.082Z,96804.73
2018-01-31T13:20:28.046Z,96805.44
2018-01-31T13:23:41.087Z,96777.91
2018-01-31T13:24:51.076Z,96781.73
2018-01-31T13:26:01.440Z,96789.16
2018-01-31T13:29:15.546Z,96772.38
2018-01-31T13:30:55.598Z,96800.62
2018-01-31T13:32:06.018Z,96774.38
2018-01-31T13:33:20.095Z,96768.39
2018-01-31T13:36:37.093Z,96745.41
2018-01-31T13:37:50.891Z,96777.75
2018-01-31T13:39:00.899Z,96751.81
2018-01-31T13:40:10.073Z,96749.31
2018-01-31T13:43:22.251Z,96752.31
2018-01-31T13:44:32.204Z,96757.85
2018-01-31T13:47:49.072Z,96732.11
2018-01-31T13:48:59.394Z,96719.99
2018-01-31T13:50:09.230Z,96713.11
2018-01-31T13:51:18.194Z,96738.22
2018-01-31T13:54:31.608Z,96703.60
2018-01-31T13:57:44.562Z,96732.55
2018-01-31T13:58:54.613Z,96693.36
2018-01-31T14:02:06.528Z,96686.76
2018-01-31T14:03:16.371Z,96674.17
2018-01-31T14:06:27.770Z,96696.43
2018-01-31T14:09:38.678Z,96705.08
2018-01-31T14:12:50.033Z,96680.53
2018-01-31T14:16:00.984Z,96659.06
2018-01-31T14:17:11.028Z,96692.21
2018-01-31T14:18:21.258Z,96654.02
2018-01-31T14:21:37.124Z,96662.45
2018-01-31T14:22:47.056Z,96649.88
2018-01-31T14:23:57.181Z,96645.38
2018-01-31T14:25:06.237Z,96662.41
2018-01-31T14:28:22.078Z,96648.37
2018-01-31T14:29:32.324Z,96632.49
2018-01-31T14:30:42.277Z,96657.20
2018-01-31T14:31:52.280Z,96639.18
2018-01-31T14:35:05.445Z,96631.73
2018-01-31T14:36:14.125Z,96623.05
2018-01-31T14:37:17.961Z,96616.92
2018-01-31T14:38:21.943Z,96607.70
2018-01-31T14:39:25.799Z,96588.53
2018-01-31T14:40:29.705Z,96579.16
2018-01-31T14:41:34.004Z,96593.44
2018-01-31T14:42:37.879Z,96588.75
2018-01-31T14:43:41.704Z,96635.13
2018-01-31T14:44:45.550Z,96613.81
2018-01-31T14:45:49.469Z,96585.84
2018-01-31T14:46:53.312Z,96611.32
2018-01-31T14:47:57.432Z,96583.39
2018-01-31T14:49:01.337Z,96586.38
2018-01-31T14:50:05.185Z,96595.62
2018-01-31T14:51:09.028Z,96577.53
2018-01-31T14:52:12.852Z,96589.85
2018-01-31T14:53:16.676Z,96582.11
2018-01-31T14:54:20.826Z,96589.50
2018-01-31T14:55:24.654Z,96569.53
2018-01-31T14:56:28.493Z,96558.39
2018-01-31T14:57:32.323Z,96568.64
2018-01-31T14:58:36.154Z,96583.11
2018-01-31T14:59:40.001Z,96581.33
2018-01-31T15:00:44.261Z,96572.23
2018-01-31T15:01:48.128Z,96566.20
2018-01-31T15:02:52.074Z,96563.80
2018-01-31T15:03:55.944Z,96566.05
2018-01-31T15:04:59.775Z,96549.21
2018-01-31T15:06:03.606Z,96565.58
2018-01-31T15:07:07.838Z,96558.34
2018-01-31T15:08:11.670Z,96549.50
2018-01-31T15:09:15.505Z,96547.85
2018-01-31T15:10:19.446Z,96530.48
2018-01-31T15:11:23.245Z,96535.21
2018-01-31T15:12:27.064Z,96533.56
2018-01-31T15:13:31.284Z,96528.08
2018-01-31T15:14:35.103Z,96532.67
2018-01-31T15:15:39.103Z,96549.78
2018-01-31T15:16:42.962Z,96548.09
2018-01-31T15:17:46.871Z,96538.72
2018-01-31T15:18:50.711Z,96529.18
2018-01-31T15:19:55.054Z,96534.77
2018-01-31T15:20:58.862Z,96525.89
2018-01-31T15:22:02.727Z,96517.16
2018-01-31T15:23:06.542Z,96541.21
2018-01-31T15:24:10.405Z,96519.62
2018-01-31T15:25:14.209Z,96506.43
2018-01-31T15:26:18.685Z,96524.11
2018-01-31T15:27:22.400Z,96523.10
2018-01-31T15:28:26.198Z,96511.02
2018-01-31T15:29:29.912Z,96492.52